Latest Weather Observations for Truscott

IDD60801

Issued at 5:31 pm CST Tuesday 28 February 2017 (issued every 30 minutes, with the page automatically refreshed every 10 minutes)

About weather observations | Map of weather stations | Latest weather observations for NT | Other Formats
Station Details ID: 001020 Name: TRUSCOTT Lat: -14.09 Lon: 126.39 Height: 51.0 m
Data from the previous 72 hours. | See also: Recent months at Truscott
Date/Time
CST
Temp
°C
App
Temp
°C
Dew
Point
°C
Rel
Hum
%
Delta-T
°C
Wind Press
QNH
hPa
Press
MSL
hPa
Rain since
9am
mm
Dir  Spd
km/h
Gust
km/h
Spd
kts
Gust
kts
28/05:30pm 32.0 34.2 21.8 54 6.9 NNE 13 19 7 10 1005.4 - 0.0
28/05:00pm 32.8 34.8 22.3 54 7.2 N 15 22 8 12 1005.6 - 0.0
28/04:30pm 33.6 34.9 21.7 49 8.1 N 17 24 9 13 1005.8 1005.4 0.0
28/04:00pm 34.3 36.8 22.4 50 8.2 NE 13 20 7 11 1005.9 - 0.0
28/03:30pm 35.1 36.8 21.0 43 9.5 ENE 13 20 7 11 1006.0 - 0.0
28/03:00pm 34.7 36.1 20.3 43 9.6 ENE 13 20 7 11 1006.3 - 0.0
28/02:30pm 34.5 36.1 20.8 44 9.2 ENE 13 17 7 9 1006.5 - 0.0
28/02:00pm 34.6 37.0 21.6 46 8.9 E 11 20 6 11 1006.9 - 0.0
28/01:30pm 34.2 36.2 21.6 47 8.6 E 13 24 7 13 1007.3 1006.9 0.0
28/01:00pm 34.0 35.2 20.7 45 8.9 NE 15 22 8 12 1007.6 - 0.0
28/12:30pm 34.3 35.3 19.5 41 9.8 E 13 22 7 12 1007.7 - 0.0
28/12:00pm 33.8 35.7 20.6 46 8.9 ESE 11 20 6 11 1008.1 - 0.0
28/11:30am 33.0 35.2 21.8 51 7.6 SSE 13 22 7 12 1008.4 - 0.0
28/11:00am 32.9 35.2 21.4 50 7.8 SE 11 19 6 10 1008.6 - 0.0
28/10:30am 32.5 33.8 20.1 48 8.2 SSE 13 20 7 11 1008.8 1008.4 0.0
28/10:00am 32.5 34.4 21.4 52 7.5 S 13 17 7 9 1008.9 - 0.0
28/09:30am 30.9 33.9 21.9 58 6.1 SSE 9 15 5 8 1008.9 - 0.0
28/09:00am 29.8 33.4 22.3 64 5.1 SE 7 11 4 6 1008.8 - 0.0
28/08:30am 28.7 32.5 22.7 70 4.1 SE 7 11 4 6 1008.6 - 0.0
28/08:00am 27.7 32.1 23.5 78 2.9 SE 6 7 3 4 1008.5 - 0.0
28/07:30am 26.4 30.8 23.5 84 2.0 SE 6 9 3 5 1008.4 1008.0 0.0
28/07:00am 26.0 30.3 23.3 85 1.8 SSE 6 7 3 4 1008.4 - 0.0
28/06:30am 25.9 30.3 23.4 86 1.7 SSE 6 7 3 4 1008.3 - 0.0
28/06:00am 26.5 30.4 23.0 81 2.4 SSW 7 9 4 5 1008.1 - 0.0
28/05:30am 26.8 30.4 23.1 80 2.5 SSW 9 11 5 6 1007.9 - 0.0
28/05:00am 26.9 30.7 23.4 81 2.4 SSW 9 11 5 6 1007.7 - 0.0
28/04:30am 26.7 30.7 23.8 84 2.0 SW 9 11 5 6 1007.6 1007.2 0.0
28/04:00am 26.8 31.6 24.1 85 1.9 WSW 6 7 3 4 1007.6 - 0.0
28/03:30am 26.9 31.4 24.0 84 2.0 SW 7 9 4 5 1007.8 - 0.0
28/03:00am 27.1 31.1 23.8 82 2.3 SW 9 11 5 6 1008.0 - 0.0
28/02:30am 27.5 31.6 23.9 81 2.5 SSW 9 13 5 7 1008.2 - 0.0
28/02:00am 27.7 32.4 24.3 82 2.4 SSW 7 11 4 6 1008.7 - 0.0
28/01:30am 27.8 31.8 23.8 79 2.8 S 9 13 5 7 1009.2 1008.8 0.0
28/01:00am 28.1 32.3 23.5 76 3.2 SSW 7 11 4 6 1009.4 - 0.0
28/12:30am 27.7 33.8 24.5 83 2.2 CALM 0 0 0 0 1009.5 - 0.0
28/12:00am 27.4 33.7 24.8 86 1.8 CALM 0 0 0 0 1009.7 - 0.0
 
Date/Time
CST
Temp
°C
App
Temp
°C
Dew
Point
°C
Rel
Hum
%
Delta-T
°C
Wind Press
QNH
hPa
Press
MSL
hPa
Rain since
9am
mm
Dir  Spd
km/h
Gust
km/h
Spd
kts
Gust
kts
27/11:30pm 27.5 33.5 24.3 83 2.2 CALM 0 0 0 0 1009.8 - 0.0
27/11:00pm 27.7 33.6 24.1 81 2.5 CALM 0 0 0 0 1009.8 - 0.0
27/10:30pm 27.9 33.7 23.9 79 2.8 CALM 0 0 0 0 1009.5 1009.1 0.0
27/10:00pm 28.1 34.1 24.3 80 2.6 CALM 0 0 0 0 1009.2 - 0.0
27/09:30pm 28.3 34.1 23.9 77 3.0 CALM 0 0 0 0 1008.7 - 0.0
27/09:00pm 28.6 34.6 24.2 77 3.1 CALM 0 0 0 0 1008.7 - 0.0
27/08:30pm 28.6 34.0 23.3 73 3.6 CALM 0 0 0 0 1008.3 - 0.0
27/08:00pm 29.1 35.1 24.2 75 3.4 CALM 0 0 0 0 1007.7 - 0.0
27/07:30pm 29.9 35.0 22.6 65 5.0 CALM 0 0 0 0 1007.0 1006.6 0.0
27/07:00pm 30.3 34.0 22.2 62 5.5 NNE 6 9 3 5 1006.8 - 0.0
27/06:30pm 30.7 34.3 22.3 61 5.7 E 7 9 4 5 1006.7 - 0.0
27/06:00pm 30.3 32.4 21.7 60 5.8 ESE 13 17 7 9 1006.4 - 0.0
27/05:30pm 31.2 32.0 21.7 57 6.4 ESE 20 37 11 20 1006.6 - 0.0
27/05:00pm 32.5 34.1 20.7 49 7.9 E 13 17 7 9 1006.4 - 0.0
27/04:30pm 33.0 36.8 24.7 61 5.9 N 13 19 7 10 1006.7 1006.3 0.0
27/04:00pm 32.2 35.2 23.4 59 6.1 N 13 19 7 10 1006.8 - 0.0
27/03:30pm 32.9 36.1 22.4 54 7.2 ENE 9 17 5 9 1007.2 - 0.0
27/03:00pm 33.0 35.7 22.1 52 7.4 E 11 20 6 11 1007.6 - 0.0
27/02:30pm 32.7 34.7 21.5 51 7.6 ENE 13 20 7 11 1008.0 - 0.0
27/02:00pm 33.1 36.1 21.3 50 8.0 E 7 17 4 9 1008.3 - 0.0
27/01:30pm 32.2 35.4 21.7 54 7.1 NNE 7 13 4 7 1008.7 1008.3 0.0
27/01:00pm 32.1 34.6 21.0 52 7.5 E 9 13 5 7 1008.9 - 0.0
27/12:30pm 31.4 33.9 21.0 54 7.0 NE 9 13 5 7 1009.1 - 0.0
27/12:00pm 31.5 34.8 21.9 56 6.5 NE 7 13 4 7 1009.3 - 0.0
27/11:30am 31.0 34.0 21.2 56 6.6 E 7 15 4 8 1009.6 - 0.0
27/11:00am 30.6 33.6 21.9 59 5.9 ENE 9 15 5 8 1010.0 - 0.0
27/10:30am 30.2 33.0 21.6 60 5.8 ESE 9 15 5 8 1010.2 1009.8 0.0
27/10:00am 29.4 31.3 21.4 62 5.4 E 13 20 7 11 1010.3 - 0.0
27/09:30am 29.2 31.8 21.9 64 4.9 E 11 15 6 8 1010.6 - 0.0
27/09:00am 28.6 31.5 21.1 64 5.0 E 7 13 4 7 1010.5 - 0.0
27/08:30am 27.6 30.9 22.5 74 3.5 S 9 15 5 8 1009.9 - 0.0
27/08:00am 26.6 30.3 23.3 82 2.3 S 9 13 5 7 1009.3 - 0.0
27/07:30am 26.4 30.4 23.1 82 2.2 SW 7 9 4 5 1009.2 1008.8 0.0
27/07:00am 26.5 30.6 23.2 82 2.3 SSE 7 9 4 5 1009.5 - 0.0
27/06:30am 26.6 30.4 24.1 86 1.7 SE 11 20 6 11 1009.7 - 0.0
27/06:00am 25.9 30.6 24.3 91 1.1 S 7 11 4 6 1009.3 - 0.0
27/05:30am 26.2 31.0 24.1 88 1.4 S 6 7 3 4 1008.7 - 0.0
27/05:00am 26.8 31.3 23.9 84 2.0 S 7 11 4 6 1008.6 - 0.0
27/04:30am 27.2 31.5 24.3 84 2.0 SSW 9 11 5 6 1008.6 1008.2 0.0
27/04:00am 27.7 32.1 25.1 86 1.8 SW 11 15 6 8 1008.4 - 0.0
27/03:30am 27.7 32.3 25.3 87 1.7 WSW 11 15 6 8 1008.1 - 0.0
27/03:00am 27.6 32.0 25.0 86 1.8 WSW 11 15 6 8 1008.1 - 0.0
27/02:30am 27.5 32.3 25.1 87 1.7 WSW 9 13 5 7 1008.5 - 0.0
27/02:00am 27.4 32.7 25.2 88 1.5 SW 7 9 4 5 1008.9 - 0.0
27/01:30am 27.6 32.9 25.2 87 1.7 WSW 7 9 4 5 1009.2 1008.8 0.0
27/01:00am 27.4 32.8 25.2 88 1.5 SSW 6 7 3 4 1009.7 - 0.0
27/12:30am 28.0 33.6 25.4 86 1.8 W 6 7 3 4 1010.1 - 0.0
27/12:00am 27.6 32.5 24.6 84 2.1 WSW 7 11 4 6 1010.2 - 0.0
 
Date/Time
CST
Temp
°C
App
Temp
°C
Dew
Point
°C
Rel
Hum
%
Delta-T
°C
Wind Press
QNH
hPa
Press
MSL
hPa
Rain since
9am
mm
Dir  Spd
km/h
Gust
km/h
Spd
kts
Gust
kts
26/11:30pm 27.7 32.5 24.1 81 2.5 WSW 6 9 3 5 1010.2 - 0.0
26/11:00pm 27.3 31.8 23.7 81 2.5 WNW 6 7 3 4 1010.3 - 0.0
26/10:30pm 27.7 32.0 23.3 77 3.0 W 6 7 3 4 1010.3 1009.9 0.0
26/10:00pm 27.0 31.4 23.5 81 2.4 W 6 7 3 4 1009.6 - 0.0
26/09:30pm 26.7 31.1 23.4 82 2.3 NNE 6 9 3 5 1009.5 - 0.0
26/09:00pm 26.7 30.3 23.0 80 2.5 WSW 9 13 5 7 1009.1 - 0.0
26/08:30pm 26.8 28.9 22.4 77 3.0 S 15 19 8 10 1008.7 - 0.0
26/08:00pm 28.4 29.8 22.6 71 3.9 SSE 19 28 10 15 1008.8 - 0.0
26/07:30pm 29.1 33.9 24.4 76 3.3 N 7 13 4 7 1007.3 1007.0 0.0
26/07:00pm 29.7 33.4 24.6 74 3.6 NW 13 19 7 10 1006.6 - 0.0
26/06:30pm 30.2 34.2 25.0 73 3.7 NW 13 19 7 10 1006.6 - 0.0
26/06:00pm 29.7 33.6 24.8 75 3.4 NNW 13 20 7 11 1006.2 - 0.0
26/05:30pm 30.8 34.2 24.7 70 4.3 NW 15 20 8 11 1006.2 - 0.0
26/05:00pm 30.7 34.0 25.1 72 4.0 NNW 17 24 9 13 1006.1 - 0.0
26/04:30pm 30.7 33.7 24.6 70 4.3 NNW 17 24 9 13 1006.3 1005.9 0.0
26/04:00pm 31.2 33.6 23.6 64 5.3 NNW 17 26 9 14 1006.5 - 0.0
26/03:30pm 31.1 33.4 23.5 64 5.3 NNW 17 22 9 12 1006.7 - 0.0
26/03:00pm 31.7 35.4 25.1 68 4.7 NW 15 20 8 11 1006.9 - 0.0
26/02:30pm 31.9 35.6 24.5 65 5.2 NW 13 19 7 10 1007.4 - 0.0
26/02:00pm 31.6 35.0 24.7 67 4.9 NNW 15 22 8 12 1007.8 - 0.0
26/01:30pm 31.2 34.2 23.3 63 5.5 N 13 20 7 11 1008.2 1007.8 0.0
26/01:00pm 31.3 34.8 24.2 66 5.0 NNW 13 17 7 9 1008.6 - 0.0
26/12:30pm 31.2 35.5 24.3 66 4.8 NNW 9 19 5 10 1008.8 - 0.0
26/12:00pm 30.5 34.8 24.2 69 4.4 W 9 15 5 8 1009.2 - 0.0
26/11:30am 30.8 34.7 24.2 68 4.6 WNW 11 17 6 9 1009.3 - 0.0
26/11:00am 31.2 34.5 21.4 56 6.6 NE 6 11 3 6 1009.4 - 0.0
26/10:30am 30.7 34.1 22.0 59 5.9 SSE 7 13 4 7 1009.5 1009.1 0.0
26/10:00am 30.0 34.1 22.9 65 4.9 E 6 11 3 6 1009.6 - 0.0
26/09:30am 29.6 33.9 23.3 69 4.3 ESE 6 9 3 5 1009.6 - 0.0
26/09:00am 28.8 34.3 24.1 76 3.3 SE 2 7 1 4 1009.2 - 0.0
26/08:30am 28.0 34.6 25.8 88 1.6 SE 2 6 1 3 1009.2 - 0.0
26/08:00am 26.7 32.5 25.7 94 0.7 SE 6 7 3 4 1009.0 - 0.0
26/07:30am 25.6 31.1 25.6 100 0.0 SSE 7 9 4 5 1008.9 1008.5 0.0
26/07:00am 25.3 31.9 25.3 100 0.0 CALM 0 0 0 0 1008.7 - 0.0
26/06:30am 25.1 31.6 25.1 100 0.0 CALM 0 0 0 0 1008.7 - 0.0
26/06:00am 25.2 31.8 25.2 100 0.0 CALM 0 0 0 0 1008.5 - 0.0
26/05:30am 25.3 31.9 25.3 100 0.0 CALM 0 0 0 0 1008.5 - 0.0
26/05:00am 25.3 31.8 25.1 99 0.1 CALM 0 0 0 0 1008.0 - 0.0
26/04:30am 25.7 32.5 25.5 99 0.1 CALM 0 0 0 0 1008.1 1007.7 0.0
26/04:00am 25.8 32.6 25.6 99 0.1 CALM 0 0 0 0 1008.3 - 0.0
26/03:30am 25.9 32.6 25.4 97 0.4 CALM 0 0 0 0 1008.6 - 0.0
26/03:00am 26.1 32.3 25.2 95 0.6 NNW 2 6 1 3 1008.9 - 0.0
26/02:30am 26.3 32.6 25.4 95 0.6 W 2 7 1 4 1009.2 - 0.0
26/02:00am 26.4 32.3 25.4 94 0.7 NW 4 6 2 3 1009.6 - 0.0
26/01:30am 26.3 32.9 25.8 97 0.4 NW 2 6 1 3 1009.7 1009.3 0.0
26/01:00am 26.3 33.3 25.8 97 0.4 CALM 0 0 0 0 1010.2 - 0.0
26/12:30am 26.3 33.1 25.6 96 0.5 CALM 0 0 0 0 1010.6 - 0.0
26/12:00am 26.7 33.7 25.8 95 0.6 CALM 0 0 0 0 1010.5 - 0.0
 
Date/Time
CST
Temp
°C
App
Temp
°C
Dew
Point
°C
Rel
Hum
%
Delta-T
°C
Wind Press
QNH
hPa
Press
MSL
hPa
Rain since
9am
mm
Dir  Spd
km/h
Gust
km/h
Spd
kts
Gust
kts
25/11:30pm 26.8 33.6 25.6 93 0.8 CALM 0 0 0 0 1010.6 - 0.0
25/11:00pm 27.3 34.2 25.7 91 1.1 CALM 0 0 0 0 1010.6 - 0.0
25/10:30pm 27.6 34.4 25.6 89 1.4 CALM 0 0 0 0 1010.7 1010.3 0.0
25/10:00pm 28.0 33.7 25.0 84 2.1 NNW 4 6 2 3 1010.6 - 0.0
25/09:30pm 28.1 32.8 24.9 83 2.2 NW 9 13 5 7 1010.2 - 0.0
25/09:00pm 28.3 33.1 25.1 83 2.2 N 9 13 5 7 1009.8 - 0.0
25/08:30pm 28.2 33.3 25.0 83 2.2 N 7 11 4 6 1009.2 - 0.0
25/08:00pm 28.4 33.3 24.6 80 2.7 N 7 13 4 7 1008.8 - 0.0
25/07:30pm 28.6 33.2 24.8 80 2.7 N 9 15 5 8 1008.1 1007.7 0.0

Other Formats:

Comma delimited format used in spreadsheet applications
http://www.bom.gov.au/fwo/IDD60801/IDD60801.95101.axf

JavaScript Object Notation format (JSON) in row-major order
http://www.bom.gov.au/fwo/IDD60801/IDD60801.95101.json